Eurocargo Venezia — IBKS — position and weather

sailwx.info

Track history (hours):
 
Tides and Currents Weather Stations Pressure Air Temp Water Temp Dewpoint Dewpoint Depression Visibility Wind Speed Wind Dir Waves Ship Positions

Eurocargo Venezia

Last reported at 2016-Jun-26 00:17 UTC. Time now 2016-Jun-26 03:00 UTC.
Position N 42°50' E 010°32'.

Length 200 m; draft 7.5 m.

Type: Ship (hazmat cat D). MMSI: 247297200.

Date/timePositionNaut miles runAvg speedWind from/ knotsBaromVisibWave heightAir tempDewpointWater temp
2016-Jun-26 00:17N 42°50' E 010°32'1317.6
2016-Jun-25 23:34N 43°00' E 010°22'1817.8
2016-Jun-25 22:34N 43°16' E 010°11'1817.9
2016-Jun-25 21:33N 43°31' E 009°58'1818.0
2016-Jun-25 20:34N 43°44' E 009°41'1818.2
2016-Jun-25 19:34N 43°58' E 009°24'1717.3
2016-Jun-25 18:33N 44°10' E 009°08'1616.0
2016-Jun-25 17:33N 44°24' E 008°55'2 1.6
2016-Jun-25 16:30N 44°24' E 008°53'0 0.0
2016-Jun-25 15:33N 44°24' E 008°53'0 0.0
2016-Jun-25 14:33N 44°24' E 008°53'0 0.0
2016-Jun-25 13:33N 44°24' E 008°53'0 0.0
2016-Jun-25 12:33N 44°24' E 008°53'0 0.0
2016-Jun-25 11:33N 44°24' E 008°53'0 0.0
2016-Jun-25 10:33N 44°24' E 008°53'0 0.0
2016-Jun-25 09:30N 44°24' E 008°53'0 0.0
2016-Jun-25 08:33N 44°24' E 008°53'0 0.0
2016-Jun-25 07:32N 44°24' E 008°53'0 0.0
2016-Jun-25 06:33N 44°24' E 008°53'3 2.7
2016-Jun-25 05:33N 44°23' E 008°57'1010.5
2016-Jun-25 04:34N 44°15' E 009°05'1818.5
2016-Jun-25 03:34N 44°01' E 009°22'1918.8
2016-Jun-25 02:34N 43°46' E 009°39'1918.7
2016-Jun-25 01:34N 43°33' E 009°56'1818.1
2016-Jun-25 00:34N 43°17' E 010°10'1918.6
2016-Jun-24 23:34N 43°01' E 010°22'1818.2
2016-Jun-24 22:33N 42°46' E 010°36'2018.4
2016-Jun-24 21:30N 42°30' E 010°51'11218.6
2016-Jun-24 15:30N 41°16' E 012°44'2418.9
2016-Jun-24 14:14N 41°02' E 013°10'1318.7
2016-Jun-24 13:33N 40°55' E 013°24'1818.3
2016-Jun-24 12:33N 40°41' E 013°40'1919.3
2016-Jun-24 11:33N 40°26' E 013°55'2019.7
2016-Jun-24 10:34N 40°10' E 014°09'2119.9
2016-Jun-24 09:32N 39°53' E 014°25'4020.2
2016-Jun-24 07:32N 39°20' E 014°55'6020.3
2016-Jun-24 04:33N 38°29' E 015°37'1515.1
2016-Jun-24 03:34N 38°14' E 015°37'1716.8
2016-Jun-24 02:34N 37°58' E 015°30'1817.6
2016-Jun-24 01:32N 37°42' E 015°22'1715.6
2016-Jun-24 00:27N 37°28' E 015°10'54 5.0
2016-Jun-23 13:33N 36°33' E 015°06'2120.7
2016-Jun-23 12:33N 36°17' E 014°51'2020.6
2016-Jun-23 11:33N 35°60' E 014°37'9 8.2
2016-Jun-23 10:31N 35°53' E 014°31'0 0.0
2016-Jun-23 09:25N 35°53' E 014°31'0 0.0
2016-Jun-23 08:31N 35°53' E 014°31'0 0.0
2016-Jun-23 07:25N 35°53' E 014°31'0 0.0
2016-Jun-23 05:31N 35°53' E 014°31'0 0.0
2016-Jun-23 04:31N 35°53' E 014°31'0 0.0
2016-Jun-23 03:25N 35°53' E 014°31'0 0.0
2016-Jun-23 02:33N 35°53' E 014°31'7 6.7
2016-Jun-23 01:33N 35°58' E 014°36'2020.3
2016-Jun-23 00:33N 36°15' E 014°50'2020.5
2016-Jun-22 23:33N 36°32' E 015°05'5518.0
2016-Jun-22 20:31N 37°26' E 015°10'4 0.6
2016-Jun-22 13:15N 37°29' E 015°06'9 9.7
2016-Jun-22 12:21N 37°34' E 015°15'1316.6
2016-Jun-22 11:34N 37°45' E 015°22'1716.8
2016-Jun-22 10:33N 38°01' E 015°30'1615.6
2016-Jun-22 09:34N 38°15' E 015°38'1616.1
2016-Jun-22 08:33N 38°31' E 015°33'1918.9
2016-Jun-22 07:33N 38°48' E 015°23'2118.9
2016-Jun-22 06:26N 39°06' E 015°08'10019.1
2016-Jun-22 01:10N 40°28' E 013°53'16918.7
2016-Jun-21 16:06N 42°21' E 011°05'1018.4
2016-Jun-21 15:33N 42°27' E 010°54'2019.3
2016-Jun-21 14:33N 42°43' E 010°38'1919.2
2016-Jun-21 13:33N 42°59' E 010°24'1919.3
2016-Jun-21 12:33N 43°17' E 010°16'1514.8
2016-Jun-21 11:34N 43°32' E 010°16'4 3.8
2016-Jun-21 10:34N 43°35' E 010°19'0 0.0
2016-Jun-21 09:34N 43°35' E 010°19'0 0.0
2016-Jun-21 08:33N 43°35' E 010°19'0 0.0
2016-Jun-21 07:34N 43°35' E 010°19'0 0.0
2016-Jun-21 05:33N 43°35' E 010°19'0 0.0
2016-Jun-21 04:33N 43°35' E 010°19'2 1.8
2016-Jun-21 03:33N 43°33' E 010°18'1110.9
2016-Jun-21 02:33N 43°30' E 010°03'1515.1
2016-Jun-21 01:34N 43°39' E 009°47'1414.5
2016-Jun-21 00:34N 43°50' E 009°34'1414.3
2016-Jun-20 23:34N 44°01' E 009°21'1414.4
2016-Jun-20 22:34N 44°12' E 009°07'1414.0
2016-Jun-20 21:33N 44°23' E 008°56'2 2.1
2016-Jun-20 20:32N 44°24' E 008°53'0 0.0
2016-Jun-20 19:32N 44°24' E 008°53'0 0.0
2016-Jun-20 18:32N 44°24' E 008°53'0 0.0
2016-Jun-20 17:32N 44°24' E 008°53'0 0.0
2016-Jun-20 16:32N 44°24' E 008°53'0 0.0
2016-Jun-20 15:32N 44°24' E 008°53'0 0.0
2016-Jun-20 14:32N 44°24' E 008°53'0 0.0
2016-Jun-20 13:32N 44°24' E 008°53'0 0.0
2016-Jun-20 12:32N 44°24' E 008°53'0 0.0
2016-Jun-20 11:32N 44°24' E 008°53'0 0.0
2016-Jun-20 10:32N 44°24' E 008°53'0 0.0
2016-Jun-20 09:32N 44°24' E 008°53'0 0.0
2016-Jun-20 08:32N 44°24' E 008°53'0 0.0
2016-Jun-20 07:32N 44°24' E 008°53'0 0.0
2016-Jun-20 06:32N 44°24' E 008°53'1 0.6
2016-Jun-20 05:33N 44°24' E 008°54'1312.8
2016-Jun-20 04:33N 44°14' E 009°06'1818.0
2016-Jun-20 03:34N 44°01' E 009°22'1818.1
2016-Jun-20 02:33N 43°47' E 009°38'1818.1
2016-Jun-20 01:34N 43°33' E 009°55'1817.6
2016-Jun-20 00:33N 43°19' E 010°09'1817.9
2016-Jun-19 23:34N 43°03' E 010°20'2417.7
2016-Jun-19 22:11N 42°43' E 010°39'19417.9
2016-Jun-19 11:22N 40°32' E 013°49'1518.2
2016-Jun-19 10:33N 40°20' E 014°00'7418.5
2016-Jun-19 06:33N 39°19' E 014°56'1918.7
2016-Jun-19 05:32N 39°04' E 015°10'1818.6
2016-Jun-19 04:33N 38°48' E 015°23'1918.6
2016-Jun-19 03:34N 38°32' E 015°34'1717.2
2016-Jun-19 02:33N 38°16' E 015°41'1717.1
2016-Jun-19 01:33N 38°00' E 015°31'1918.8
2016-Jun-19 00:33N 37°43' E 015°21'19 2.3
2016-Jun-18 16:32N 37°29' E 015°06'4815.4
2016-Jun-18 13:26N 36°42' E 015°14'1719.4
2016-Jun-18 12:33N 36°28' E 015°02'1919.5
2016-Jun-18 11:33N 36°12' E 014°48'1918.9
2016-Jun-18 10:33N 35°56' E 014°35'5 4.2
2016-Jun-18 09:25N 35°53' E 014°31'0 0.0
2016-Jun-18 08:33N 35°53' E 014°31'0 0.0
2016-Jun-18 07:33N 35°53' E 014°31'0 0.0
2016-Jun-18 06:33N 35°53' E 014°31'0 0.0
2016-Jun-18 05:33N 35°53' E 014°31'0 0.0
2016-Jun-18 04:28N 35°53' E 014°31'0 0.0
2016-Jun-18 03:33N 35°53' E 014°31'3 1.3
2016-Jun-18 01:33N 35°55' E 014°33'2019.5
2016-Jun-18 00:33N 36°11' E 014°47'2120.7
2016-Jun-17 23:33N 36°28' E 015°01'5618.3
2016-Jun-17 20:31N 37°23' E 015°12'8 1.1
2016-Jun-17 13:18N 37°29' E 015°06'17 9.5
2016-Jun-17 11:33N 37°42' E 015°20'1918.8
2016-Jun-17 10:33N 37°59' E 015°30'1616.5
2016-Jun-17 09:33N 38°14' E 015°37'1515.1
2016-Jun-17 08:34N 38°29' E 015°34'1919.1
2016-Jun-17 07:34N 38°47' E 015°24'1919.1
2016-Jun-17 06:32N 39°03' E 015°11'10318.8
2016-Jun-17 01:05N 40°27' E 013°54'1018.8
2016-Jun-17 00:34N 40°35' E 013°46'1918.9
2016-Jun-16 23:34N 40°50' E 013°32'17018.8
2016-Jun-16 14:33N 42°42' E 010°40'2618.6
2016-Jun-16 13:08N 43°04' E 010°22'1119.1
2016-Jun-16 12:33N 43°15' E 010°17'1716.6
2016-Jun-16 11:33N 43°31' E 010°13'6 5.8
2016-Jun-16 10:33N 43°35' E 010°19'0 0.0
2016-Jun-16 09:32N 43°35' E 010°19'0 0.0
2016-Jun-16 08:32N 43°35' E 010°19'0 0.0
2016-Jun-16 07:32N 43°35' E 010°19'0 0.0
2016-Jun-16 06:32N 43°35' E 010°19'0 0.0
2016-Jun-16 05:32N 43°35' E 010°19'0 0.0
2016-Jun-16 04:29N 43°35' E 010°19'2 1.8
2016-Jun-16 03:33N 43°33' E 010°18'9 9.3
2016-Jun-16 02:33N 43°30' E 010°06'1313.3
2016-Jun-16 01:33N 43°37' E 009°50'1413.8
2016-Jun-16 00:33N 43°47' E 009°37'  
Track history (hours):
 
Tides and Currents Weather Stations Pressure Air Temp Water Temp Dewpoint Dewpoint Depression Visibility Wind Speed Wind Dir Waves Ship Positions

Eurocargo Venezia

Last reported at 2016-Jun-26 00:17 UTC. Time now 2016-Jun-26 03:00 UTC.
Position N 42°50' E 010°32'.

Length 200 m; draft 7.5 m.

Type: Ship (hazmat cat D). MMSI: 247297200.

Date/timePositionNaut miles runAvg speedWind from/ knotsBaromVisibWave heightAir tempDewpointWater temp
2016-Jun-26 00:17N 42°50' E 010°32'1317.6
2016-Jun-25 23:34N 43°00' E 010°22'1817.8
2016-Jun-25 22:34N 43°16' E 010°11'1817.9
2016-Jun-25 21:33N 43°31' E 009°58'1818.0
2016-Jun-25 20:34N 43°44' E 009°41'1818.2
2016-Jun-25 19:34N 43°58' E 009°24'1717.3
2016-Jun-25 18:33N 44°10' E 009°08'1616.0
2016-Jun-25 17:33N 44°24' E 008°55'2 1.6
2016-Jun-25 16:30N 44°24' E 008°53'0 0.0
2016-Jun-25 15:33N 44°24' E 008°53'0 0.0
2016-Jun-25 14:33N 44°24' E 008°53'0 0.0
2016-Jun-25 13:33N 44°24' E 008°53'0 0.0
2016-Jun-25 12:33N 44°24' E 008°53'0 0.0
2016-Jun-25 11:33N 44°24' E 008°53'0 0.0
2016-Jun-25 10:33N 44°24' E 008°53'0 0.0
2016-Jun-25 09:30N 44°24' E 008°53'0 0.0
2016-Jun-25 08:33N 44°24' E 008°53'0 0.0
2016-Jun-25 07:32N 44°24' E 008°53'0 0.0
2016-Jun-25 06:33N 44°24' E 008°53'3 2.7
2016-Jun-25 05:33N 44°23' E 008°57'1010.5
2016-Jun-25 04:34N 44°15' E 009°05'1818.5
2016-Jun-25 03:34N 44°01' E 009°22'1918.8
2016-Jun-25 02:34N 43°46' E 009°39'1918.7
2016-Jun-25 01:34N 43°33' E 009°56'1818.1
2016-Jun-25 00:34N 43°17' E 010°10'1918.6
2016-Jun-24 23:34N 43°01' E 010°22'1818.2
2016-Jun-24 22:33N 42°46' E 010°36'2018.4
2016-Jun-24 21:30N 42°30' E 010°51'11218.6
2016-Jun-24 15:30N 41°16' E 012°44'2418.9
2016-Jun-24 14:14N 41°02' E 013°10'1318.7
2016-Jun-24 13:33N 40°55' E 013°24'1818.3
2016-Jun-24 12:33N 40°41' E 013°40'1919.3
2016-Jun-24 11:33N 40°26' E 013°55'2019.7
2016-Jun-24 10:34N 40°10' E 014°09'2119.9
2016-Jun-24 09:32N 39°53' E 014°25'4020.2
2016-Jun-24 07:32N 39°20' E 014°55'6020.3
2016-Jun-24 04:33N 38°29' E 015°37'1515.1
2016-Jun-24 03:34N 38°14' E 015°37'1716.8
2016-Jun-24 02:34N 37°58' E 015°30'1817.6
2016-Jun-24 01:32N 37°42' E 015°22'1715.6
2016-Jun-24 00:27N 37°28' E 015°10'54 5.0
2016-Jun-23 13:33N 36°33' E 015°06'2120.7
2016-Jun-23 12:33N 36°17' E 014°51'2020.6
2016-Jun-23 11:33N 35°60' E 014°37'9 8.2
2016-Jun-23 10:31N 35°53' E 014°31'0 0.0
2016-Jun-23 09:25N 35°53' E 014°31'0 0.0
2016-Jun-23 08:31N 35°53' E 014°31'0 0.0
2016-Jun-23 07:25N 35°53' E 014°31'0 0.0
2016-Jun-23 05:31N 35°53' E 014°31'0 0.0
2016-Jun-23 04:31N 35°53' E 014°31'0 0.0
2016-Jun-23 03:25N 35°53' E 014°31'0 0.0
2016-Jun-23 02:33N 35°53' E 014°31'7 6.7
2016-Jun-23 01:33N 35°58' E 014°36'2020.3
2016-Jun-23 00:33N 36°15' E 014°50'2020.5
2016-Jun-22 23:33N 36°32' E 015°05'5518.0
2016-Jun-22 20:31N 37°26' E 015°10'4 0.6
2016-Jun-22 13:15N 37°29' E 015°06'9 9.7
2016-Jun-22 12:21N 37°34' E 015°15'1316.6
2016-Jun-22 11:34N 37°45' E 015°22'1716.8
2016-Jun-22 10:33N 38°01' E 015°30'1615.6
2016-Jun-22 09:34N 38°15' E 015°38'1616.1
2016-Jun-22 08:33N 38°31' E 015°33'1918.9
2016-Jun-22 07:33N 38°48' E 015°23'2118.9
2016-Jun-22 06:26N 39°06' E 015°08'10019.1
2016-Jun-22 01:10N 40°28' E 013°53'16918.7
2016-Jun-21 16:06N 42°21' E 011°05'1018.4
2016-Jun-21 15:33N 42°27' E 010°54'2019.3
2016-Jun-21 14:33N 42°43' E 010°38'1919.2
2016-Jun-21 13:33N 42°59' E 010°24'1919.3
2016-Jun-21 12:33N 43°17' E 010°16'1514.8
2016-Jun-21 11:34N 43°32' E 010°16'4 3.8
2016-Jun-21 10:34N 43°35' E 010°19'0 0.0
2016-Jun-21 09:34N 43°35' E 010°19'0 0.0
2016-Jun-21 08:33N 43°35' E 010°19'0 0.0
2016-Jun-21 07:34N 43°35' E 010°19'0 0.0
2016-Jun-21 05:33N 43°35' E 010°19'0 0.0
2016-Jun-21 04:33N 43°35' E 010°19'2 1.8
2016-Jun-21 03:33N 43°33' E 010°18'1110.9
2016-Jun-21 02:33N 43°30' E 010°03'1515.1
2016-Jun-21 01:34N 43°39' E 009°47'1414.5
2016-Jun-21 00:34N 43°50' E 009°34'1414.3
2016-Jun-20 23:34N 44°01' E 009°21'1414.4
2016-Jun-20 22:34N 44°12' E 009°07'1414.0
2016-Jun-20 21:33N 44°23' E 008°56'2 2.1
2016-Jun-20 20:32N 44°24' E 008°53'0 0.0
2016-Jun-20 19:32N 44°24' E 008°53'0 0.0
2016-Jun-20 18:32N 44°24' E 008°53'0 0.0
2016-Jun-20 17:32N 44°24' E 008°53'0 0.0
2016-Jun-20 16:32N 44°24' E 008°53'0 0.0
2016-Jun-20 15:32N 44°24' E 008°53'0 0.0
2016-Jun-20 14:32N 44°24' E 008°53'0 0.0
2016-Jun-20 13:32N 44°24' E 008°53'0 0.0
2016-Jun-20 12:32N 44°24' E 008°53'0 0.0
2016-Jun-20 11:32N 44°24' E 008°53'0 0.0
2016-Jun-20 10:32N 44°24' E 008°53'0 0.0
2016-Jun-20 09:32N 44°24' E 008°53'0 0.0
2016-Jun-20 08:32N 44°24' E 008°53'0 0.0
2016-Jun-20 07:32N 44°24' E 008°53'0 0.0
2016-Jun-20 06:32N 44°24' E 008°53'1 0.6
2016-Jun-20 05:33N 44°24' E 008°54'1312.8
2016-Jun-20 04:33N 44°14' E 009°06'1818.0
2016-Jun-20 03:34N 44°01' E 009°22'1818.1
2016-Jun-20 02:33N 43°47' E 009°38'1818.1
2016-Jun-20 01:34N 43°33' E 009°55'1817.6
2016-Jun-20 00:33N 43°19' E 010°09'1817.9
2016-Jun-19 23:34N 43°03' E 010°20'2417.7
2016-Jun-19 22:11N 42°43' E 010°39'19417.9
2016-Jun-19 11:22N 40°32' E 013°49'1518.2
2016-Jun-19 10:33N 40°20' E 014°00'7418.5
2016-Jun-19 06:33N 39°19' E 014°56'1918.7
2016-Jun-19 05:32N 39°04' E 015°10'1818.6
2016-Jun-19 04:33N 38°48' E 015°23'1918.6
2016-Jun-19 03:34N 38°32' E 015°34'1717.2
2016-Jun-19 02:33N 38°16' E 015°41'1717.1
2016-Jun-19 01:33N 38°00' E 015°31'1918.8
2016-Jun-19 00:33N 37°43' E 015°21'19 2.3
2016-Jun-18 16:32N 37°29' E 015°06'4815.4
2016-Jun-18 13:26N 36°42' E 015°14'1719.4
2016-Jun-18 12:33N 36°28' E 015°02'1919.5
2016-Jun-18 11:33N 36°12' E 014°48'1918.9
2016-Jun-18 10:33N 35°56' E 014°35'5 4.2
2016-Jun-18 09:25N 35°53' E 014°31'0 0.0
2016-Jun-18 08:33N 35°53' E 014°31'0 0.0
2016-Jun-18 07:33N 35°53' E 014°31'0 0.0
2016-Jun-18 06:33N 35°53' E 014°31'0 0.0
2016-Jun-18 05:33N 35°53' E 014°31'0 0.0
2016-Jun-18 04:28N 35°53' E 014°31'0 0.0
2016-Jun-18 03:33N 35°53' E 014°31'3 1.3
2016-Jun-18 01:33N 35°55' E 014°33'2019.5
2016-Jun-18 00:33N 36°11' E 014°47'2120.7
2016-Jun-17 23:33N 36°28' E 015°01'5618.3
2016-Jun-17 20:31N 37°23' E 015°12'8 1.1
2016-Jun-17 13:18N 37°29' E 015°06'17 9.5
2016-Jun-17 11:33N 37°42' E 015°20'1918.8
2016-Jun-17 10:33N 37°59' E 015°30'1616.5
2016-Jun-17 09:33N 38°14' E 015°37'1515.1
2016-Jun-17 08:34N 38°29' E 015°34'1919.1
2016-Jun-17 07:34N 38°47' E 015°24'1919.1
2016-Jun-17 06:32N 39°03' E 015°11'10318.8
2016-Jun-17 01:05N 40°27' E 013°54'1018.8
2016-Jun-17 00:34N 40°35' E 013°46'1918.9
2016-Jun-16 23:34N 40°50' E 013°32'17018.8
2016-Jun-16 14:33N 42°42' E 010°40'2618.6
2016-Jun-16 13:08N 43°04' E 010°22'1119.1
2016-Jun-16 12:33N 43°15' E 010°17'1716.6
2016-Jun-16 11:33N 43°31' E 010°13'6 5.8
2016-Jun-16 10:33N 43°35' E 010°19'0 0.0
2016-Jun-16 09:32N 43°35' E 010°19'0 0.0
2016-Jun-16 08:32N 43°35' E 010°19'0 0.0
2016-Jun-16 07:32N 43°35' E 010°19'0 0.0
2016-Jun-16 06:32N 43°35' E 010°19'0 0.0
2016-Jun-16 05:32N 43°35' E 010°19'0 0.0
2016-Jun-16 04:29N 43°35' E 010°19'2 1.8
2016-Jun-16 03:33N 43°33' E 010°18'9 9.3
2016-Jun-16 02:33N 43°30' E 010°06'1313.3
2016-Jun-16 01:33N 43°37' E 009°50'1413.8
2016-Jun-16 00:33N 43°47' E 009°37'  

Dump ship's entire track history